Terminal Aerodrome Forecast
Issued by NWS

Home | Current Version | Previous Version | Graphics & Text | Print | Product List | Glossary On
Versions: 1 2 3 4 5 6 7 8 9 10 11 12 13 14 15 16
552
FTUS43 KABR 291724 AAA
TAFPIR
TAF AMD
KPIR 291724Z 2917/3018 VRB03KT P6SM FEW250
     FM300200 VRB05KT P6SM VCSH BKN050
     FM300600 12007KT P6SM BKN250=

USA.gov is the U.S. government's official web portal to all federal, state and local government web resources and services.